sensor_id;sensor_type;location;lat;lon;timestamp;P1;durP1;ratioP1;P2;durP2;ratioP2
48552;SDS011;34335;51.566;6.994;2022-08-01T00:02:15;11.07;;;8.00;;
48552;SDS011;34335;51.566;6.994;2022-08-01T00:04:40;14.13;;;8.23;;
48552;SDS011;34335;51.566;6.994;2022-08-01T00:07:05;12.90;;;8.47;;
48552;SDS011;34335;51.566;6.994;2022-08-01T00:09:31;12.77;;;8.90;;
48552;SDS011;34335;51.566;6.994;2022-08-01T00:11:56;12.38;;;8.15;;
48552;SDS011;34335;51.566;6.994;2022-08-01T00:14:21;16.03;;;9.07;;
48552;SDS011;34335;51.566;6.994;2022-08-01T00:16:47;13.27;;;9.35;;
48552;SDS011;34335;51.566;6.994;2022-08-01T00:19:12;13.95;;;9.57;;
48552;SDS011;34335;51.566;6.994;2022-08-01T00:21:38;10.57;;;8.27;;
48552;SDS011;34335;51.566;6.994;2022-08-01T00:24:03;14.77;;;9.20;;
48552;SDS011;34335;51.566;6.994;2022-08-01T00:26:28;12.23;;;10.13;;
48552;SDS011;34335;51.566;6.994;2022-08-01T00:28:54;14.13;;;9.33;;
48552;SDS011;34335;51.566;6.994;2022-08-01T00:31:19;14.57;;;9.45;;
48552;SDS011;34335;51.566;6.994;2022-08-01T00:33:44;12.93;;;8.80;;
48552;SDS011;34335;51.566;6.994;2022-08-01T00:36:10;16.40;;;10.17;;
48552;SDS011;34335;51.566;6.994;2022-08-01T00:38:35;14.77;;;10.77;;
48552;SDS011;34335;51.566;6.994;2022-08-01T00:41:00;15.85;;;10.43;;
48552;SDS011;34335;51.566;6.994;2022-08-01T00:43:25;13.07;;;9.63;;
48552;SDS011;34335;51.566;6.994;2022-08-01T00:45:51;14.27;;;9.82;;
48552;SDS011;34335;51.566;6.994;2022-08-01T00:48:16;17.23;;;11.20;;
48552;SDS011;34335;51.566;6.994;2022-08-01T00:50:41;14.73;;;10.80;;
48552;SDS011;34335;51.566;6.994;2022-08-01T00:53:07;14.15;;;10.20;;
48552;SDS011;34335;51.566;6.994;2022-08-01T00:55:32;15.15;;;10.57;;
48552;SDS011;34335;51.566;6.994;2022-08-01T00:57:58;17.95;;;11.95;;
48552;SDS011;34335;51.566;6.994;2022-08-01T01:00:24;15.23;;;10.27;;
48552;SDS011;34335;51.566;6.994;2022-08-01T01:02:49;12.75;;;9.23;;
48552;SDS011;34335;51.566;6.994;2022-08-01T01:05:15;15.05;;;9.48;;
48552;SDS011;34335;51.566;6.994;2022-08-01T01:07:44;12.98;;;8.63;;
48552;SDS011;34335;51.566;6.994;2022-08-01T01:10:31;12.75;;;8.00;;
48552;SDS011;34335;51.566;6.994;2022-08-01T01:13:16;11.32;;;9.02;;
48552;SDS011;34335;51.566;6.994;2022-08-01T01:15:51;13.82;;;9.63;;
48552;SDS011;34335;51.566;6.994;2022-08-01T01:21:02;11.35;;;8.60;;
48552;SDS011;34335;51.566;6.994;2022-08-01T01:31:31;12.77;;;8.50;;
48552;SDS011;34335;51.566;6.994;2022-08-01T01:34:01;14.13;;;9.32;;
48552;SDS011;34335;51.566;6.994;2022-08-01T01:36:29;13.60;;;8.80;;
48552;SDS011;34335;51.566;6.994;2022-08-01T01:38:57;13.63;;;9.27;;
48552;SDS011;34335;51.566;6.994;2022-08-01T01:41:23;12.05;;;9.07;;
48552;SDS011;34335;51.566;6.994;2022-08-01T01:43:50;12.20;;;9.25;;
48552;SDS011;34335;51.566;6.994;2022-08-01T01:46:18;15.25;;;9.32;;
48552;SDS011;34335;51.566;6.994;2022-08-01T01:48:48;13.85;;;9.95;;
48552;SDS011;34335;51.566;6.994;2022-08-01T01:51:15;15.70;;;10.15;;
48552;SDS011;34335;51.566;6.994;2022-08-01T01:53:41;16.23;;;10.18;;
48552;SDS011;34335;51.566;6.994;2022-08-01T01:56:10;15.70;;;10.45;;
48552;SDS011;34335;51.566;6.994;2022-08-01T01:58:36;17.23;;;10.98;;
48552;SDS011;34335;51.566;6.994;2022-08-01T02:01:04;18.00;;;11.52;;
48552;SDS011;34335;51.566;6.994;2022-08-01T02:03:32;14.27;;;9.85;;
48552;SDS011;34335;51.566;6.994;2022-08-01T02:06:01;16.58;;;10.88;;
48552;SDS011;34335;51.566;6.994;2022-08-01T02:08:28;16.15;;;11.63;;
48552;SDS011;34335;51.566;6.994;2022-08-01T02:10:55;15.20;;;11.07;;
48552;SDS011;34335;51.566;6.994;2022-08-01T02:13:41;13.98;;;10.88;;
48552;SDS011;34335;51.566;6.994;2022-08-01T02:16:08;16.58;;;11.35;;
48552;SDS011;34335;51.566;6.994;2022-08-01T02:18:36;16.98;;;11.93;;
48552;SDS011;34335;51.566;6.994;2022-08-01T02:21:02;18.20;;;12.07;;
48552;SDS011;34335;51.566;6.994;2022-08-01T02:23:31;18.05;;;11.30;;
48552;SDS011;34335;51.566;6.994;2022-08-01T02:25:58;14.75;;;10.73;;
48552;SDS011;34335;51.566;6.994;2022-08-01T02:28:31;15.93;;;11.15;;
48552;SDS011;34335;51.566;6.994;2022-08-01T02:31:00;17.38;;;11.02;;
48552;SDS011;34335;51.566;6.994;2022-08-01T02:33:33;18.38;;;12.07;;
48552;SDS011;34335;51.566;6.994;2022-08-01T02:36:01;17.17;;;10.43;;
48552;SDS011;34335;51.566;6.994;2022-08-01T02:38:28;22.67;;;12.18;;
48552;SDS011;34335;51.566;6.994;2022-08-01T02:40:58;13.90;;;10.38;;
48552;SDS011;34335;51.566;6.994;2022-08-01T02:43:28;13.57;;;10.40;;
48552;SDS011;34335;51.566;6.994;2022-08-01T02:45:58;16.73;;;10.07;;
48552;SDS011;34335;51.566;6.994;2022-08-01T02:48:26;16.13;;;11.18;;
48552;SDS011;34335;51.566;6.994;2022-08-01T02:50:54;14.93;;;11.70;;
48552;SDS011;34335;51.566;6.994;2022-08-01T02:53:21;15.80;;;9.27;;
48552;SDS011;34335;51.566;6.994;2022-08-01T02:55:50;12.82;;;9.48;;
48552;SDS011;34335;51.566;6.994;2022-08-01T02:58:18;16.10;;;9.80;;
48552;SDS011;34335;51.566;6.994;2022-08-01T03:00:44;16.65;;;10.02;;
48552;SDS011;34335;51.566;6.994;2022-08-01T03:03:11;14.57;;;10.70;;
48552;SDS011;34335;51.566;6.994;2022-08-01T03:05:38;16.70;;;10.25;;
48552;SDS011;34335;51.566;6.994;2022-08-01T03:08:05;12.18;;;9.65;;
48552;SDS011;34335;51.566;6.994;2022-08-01T03:10:32;12.15;;;9.02;;
48552;SDS011;34335;51.566;6.994;2022-08-01T03:13:00;14.68;;;9.88;;
48552;SDS011;34335;51.566;6.994;2022-08-01T03:15:28;13.13;;;10.18;;
48552;SDS011;34335;51.566;6.994;2022-08-01T03:17:56;14.68;;;10.48;;
48552;SDS011;34335;51.566;6.994;2022-08-01T03:20:25;16.77;;;10.95;;
48552;SDS011;34335;51.566;6.994;2022-08-01T03:22:53;14.23;;;11.07;;
48552;SDS011;34335;51.566;6.994;2022-08-01T03:25:19;16.02;;;9.65;;
48552;SDS011;34335;51.566;6.994;2022-08-01T03:27:47;18.50;;;11.27;;
48552;SDS011;34335;51.566;6.994;2022-08-01T03:30:18;12.40;;;10.13;;
48552;SDS011;34335;51.566;6.994;2022-08-01T03:32:44;19.05;;;10.93;;
48552;SDS011;34335;51.566;6.994;2022-08-01T03:35:11;19.23;;;11.57;;
48552;SDS011;34335;51.566;6.994;2022-08-01T03:37:44;18.58;;;11.60;;
48552;SDS011;34335;51.566;6.994;2022-08-01T03:40:13;17.77;;;11.35;;
48552;SDS011;34335;51.566;6.994;2022-08-01T03:42:54;20.88;;;10.88;;
48552;SDS011;34335;51.566;6.994;2022-08-01T03:45:30;24.50;;;11.75;;
48552;SDS011;34335;51.566;6.994;2022-08-01T03:48:00;18.23;;;11.38;;
48552;SDS011;34335;51.566;6.994;2022-08-01T03:50:28;14.90;;;10.68;;
48552;SDS011;34335;51.566;6.994;2022-08-01T03:52:59;16.38;;;11.13;;
48552;SDS011;34335;51.566;6.994;2022-08-01T03:55:26;20.92;;;12.38;;
48552;SDS011;34335;51.566;6.994;2022-08-01T03:57:53;20.10;;;11.13;;
48552;SDS011;34335;51.566;6.994;2022-08-01T04:00:19;15.77;;;10.90;;
48552;SDS011;34335;51.566;6.994;2022-08-01T04:02:45;14.85;;;11.32;;
48552;SDS011;34335;51.566;6.994;2022-08-01T04:05:14;16.45;;;11.80;;
48552;SDS011;34335;51.566;6.994;2022-08-01T04:07:44;19.33;;;10.55;;
48552;SDS011;34335;51.566;6.994;2022-08-01T04:10:11;15.30;;;9.90;;
48552;SDS011;34335;51.566;6.994;2022-08-01T04:12:37;14.68;;;10.27;;
48552;SDS011;34335;51.566;6.994;2022-08-01T04:15:03;17.27;;;9.55;;
48552;SDS011;34335;51.566;6.994;2022-08-01T04:17:29;15.88;;;11.40;;
48552;SDS011;34335;51.566;6.994;2022-08-01T04:19:54;15.25;;;10.43;;
48552;SDS011;34335;51.566;6.994;2022-08-01T04:22:20;16.43;;;9.90;;
48552;SDS011;34335;51.566;6.994;2022-08-01T04:24:47;14.70;;;8.90;;
48552;SDS011;34335;51.566;6.994;2022-08-01T04:27:14;21.17;;;10.85;;
48552;SDS011;34335;51.566;6.994;2022-08-01T04:29:46;15.10;;;9.00;;
48552;SDS011;34335;51.566;6.994;2022-08-01T04:32:15;13.77;;;8.98;;
48552;SDS011;34335;51.566;6.994;2022-08-01T04:34:43;16.77;;;9.18;;
48552;SDS011;34335;51.566;6.994;2022-08-01T04:37:11;16.35;;;9.90;;
48552;SDS011;34335;51.566;6.994;2022-08-01T04:39:41;15.35;;;8.65;;
48552;SDS011;34335;51.566;6.994;2022-08-01T04:42:07;15.98;;;10.00;;
48552;SDS011;34335;51.566;6.994;2022-08-01T04:44:35;11.88;;;8.68;;
48552;SDS011;34335;51.566;6.994;2022-08-01T04:47:01;11.82;;;8.07;;
48552;SDS011;34335;51.566;6.994;2022-08-01T04:49:33;12.55;;;8.38;;
48552;SDS011;34335;51.566;6.994;2022-08-01T04:51:59;13.88;;;8.75;;
48552;SDS011;34335;51.566;6.994;2022-08-01T04:54:25;15.43;;;8.68;;
48552;SDS011;34335;51.566;6.994;2022-08-01T04:56:52;26.40;;;10.45;;
48552;SDS011;34335;51.566;6.994;2022-08-01T04:59:27;31.02;;;10.85;;
48552;SDS011;34335;51.566;6.994;2022-08-01T05:02:17;26.45;;;9.40;;
48552;SDS011;34335;51.566;6.994;2022-08-01T05:04:44;22.75;;;9.77;;
48552;SDS011;34335;51.566;6.994;2022-08-01T05:07:10;17.92;;;9.55;;
48552;SDS011;34335;51.566;6.994;2022-08-01T05:09:36;17.17;;;9.88;;
48552;SDS011;34335;51.566;6.994;2022-08-01T05:12:03;15.55;;;9.70;;
48552;SDS011;34335;51.566;6.994;2022-08-01T05:14:30;14.48;;;9.88;;
48552;SDS011;34335;51.566;6.994;2022-08-01T05:17:00;14.80;;;9.60;;
48552;SDS011;34335;51.566;6.994;2022-08-01T05:19:28;19.45;;;9.88;;
48552;SDS011;34335;51.566;6.994;2022-08-01T05:21:58;15.32;;;9.20;;
48552;SDS011;34335;51.566;6.994;2022-08-01T05:24:29;20.65;;;9.82;;
48552;SDS011;34335;51.566;6.994;2022-08-01T05:26:56;20.20;;;8.40;;
48552;SDS011;34335;51.566;6.994;2022-08-01T05:29:22;18.52;;;8.75;;
48552;SDS011;34335;51.566;6.994;2022-08-01T05:31:48;18.90;;;9.57;;
48552;SDS011;34335;51.566;6.994;2022-08-01T05:34:13;13.98;;;8.95;;
48552;SDS011;34335;51.566;6.994;2022-08-01T05:36:39;15.38;;;8.32;;
48552;SDS011;34335;51.566;6.994;2022-08-01T05:39:04;18.23;;;9.45;;
48552;SDS011;34335;51.566;6.994;2022-08-01T05:41:30;15.00;;;8.43;;
48552;SDS011;34335;51.566;6.994;2022-08-01T05:43:55;15.93;;;9.88;;
48552;SDS011;34335;51.566;6.994;2022-08-01T05:46:21;15.13;;;8.40;;
48552;SDS011;34335;51.566;6.994;2022-08-01T05:48:46;16.67;;;10.57;;
48552;SDS011;34335;51.566;6.994;2022-08-01T05:51:11;13.80;;;8.17;;
48552;SDS011;34335;51.566;6.994;2022-08-01T05:53:37;14.23;;;8.63;;
48552;SDS011;34335;51.566;6.994;2022-08-01T05:56:02;14.25;;;9.35;;
48552;SDS011;34335;51.566;6.994;2022-08-01T05:58:27;15.75;;;8.02;;
48552;SDS011;34335;51.566;6.994;2022-08-01T06:00:53;15.02;;;9.35;;
48552;SDS011;34335;51.566;6.994;2022-08-01T06:03:18;12.07;;;8.32;;
48552;SDS011;34335;51.566;6.994;2022-08-01T06:05:44;16.08;;;9.25;;
48552;SDS011;34335;51.566;6.994;2022-08-01T06:08:09;16.63;;;9.55;;
48552;SDS011;34335;51.566;6.994;2022-08-01T06:10:34;15.27;;;8.55;;
48552;SDS011;34335;51.566;6.994;2022-08-01T06:13:00;16.65;;;8.52;;
48552;SDS011;34335;51.566;6.994;2022-08-01T06:15:28;12.30;;;8.65;;
48552;SDS011;34335;51.566;6.994;2022-08-01T06:17:56;13.80;;;8.55;;
48552;SDS011;34335;51.566;6.994;2022-08-01T06:20:22;12.85;;;8.30;;
48552;SDS011;34335;51.566;6.994;2022-08-01T06:22:47;14.10;;;8.85;;
48552;SDS011;34335;51.566;6.994;2022-08-01T06:25:12;13.67;;;8.63;;
48552;SDS011;34335;51.566;6.994;2022-08-01T06:27:38;15.18;;;9.00;;
48552;SDS011;34335;51.566;6.994;2022-08-01T06:30:04;14.35;;;8.38;;
48552;SDS011;34335;51.566;6.994;2022-08-01T06:32:30;13.88;;;8.68;;
48552;SDS011;34335;51.566;6.994;2022-08-01T06:34:56;17.48;;;11.02;;
48552;SDS011;34335;51.566;6.994;2022-08-01T06:37:21;13.20;;;8.27;;
48552;SDS011;34335;51.566;6.994;2022-08-01T06:39:47;15.63;;;8.88;;
48552;SDS011;34335;51.566;6.994;2022-08-01T06:42:14;13.63;;;8.52;;
48552;SDS011;34335;51.566;6.994;2022-08-01T06:44:40;11.48;;;7.63;;
48552;SDS011;34335;51.566;6.994;2022-08-01T06:47:05;12.05;;;7.32;;
48552;SDS011;34335;51.566;6.994;2022-08-01T06:49:30;10.80;;;6.33;;
48552;SDS011;34335;51.566;6.994;2022-08-01T06:51:56;10.80;;;6.27;;
48552;SDS011;34335;51.566;6.994;2022-08-01T06:54:21;11.45;;;6.18;;
48552;SDS011;34335;51.566;6.994;2022-08-01T06:56:46;8.73;;;6.33;;
48552;SDS011;34335;51.566;6.994;2022-08-01T06:59:12;8.53;;;5.87;;
48552;SDS011;34335;51.566;6.994;2022-08-01T07:01:37;8.57;;;5.47;;
48552;SDS011;34335;51.566;6.994;2022-08-01T07:04:02;10.67;;;5.43;;
48552;SDS011;34335;51.566;6.994;2022-08-01T07:06:28;8.63;;;5.55;;
48552;SDS011;34335;51.566;6.994;2022-08-01T07:08:53;9.50;;;5.82;;
48552;SDS011;34335;51.566;6.994;2022-08-01T07:11:19;11.55;;;5.35;;
48552;SDS011;34335;51.566;6.994;2022-08-01T07:13:45;7.90;;;4.85;;
48552;SDS011;34335;51.566;6.994;2022-08-01T07:16:14;8.00;;;4.23;;
48552;SDS011;34335;51.566;6.994;2022-08-01T07:18:41;12.43;;;4.70;;
48552;SDS011;34335;51.566;6.994;2022-08-01T07:21:06;7.78;;;5.00;;
48552;SDS011;34335;51.566;6.994;2022-08-01T07:23:32;6.53;;;3.92;;
48552;SDS011;34335;51.566;6.994;2022-08-01T07:25:58;6.63;;;3.97;;
48552;SDS011;34335;51.566;6.994;2022-08-01T07:28:24;6.53;;;4.18;;
48552;SDS011;34335;51.566;6.994;2022-08-01T07:30:49;8.45;;;4.97;;
48552;SDS011;34335;51.566;6.994;2022-08-01T07:33:15;7.63;;;4.70;;
48552;SDS011;34335;51.566;6.994;2022-08-01T07:35:40;6.57;;;4.45;;
48552;SDS011;34335;51.566;6.994;2022-08-01T07:38:06;7.63;;;4.60;;
48552;SDS011;34335;51.566;6.994;2022-08-01T07:40:32;9.27;;;4.45;;
48552;SDS011;34335;51.566;6.994;2022-08-01T07:42:58;7.68;;;4.50;;
48552;SDS011;34335;51.566;6.994;2022-08-01T07:45:23;7.57;;;4.57;;
48552;SDS011;34335;51.566;6.994;2022-08-01T07:47:48;6.32;;;4.30;;
48552;SDS011;34335;51.566;6.994;2022-08-01T07:50:14;5.03;;;3.15;;
48552;SDS011;34335;51.566;6.994;2022-08-01T07:52:41;7.25;;;3.90;;
48552;SDS011;34335;51.566;6.994;2022-08-01T07:55:07;4.18;;;2.28;;
48552;SDS011;34335;51.566;6.994;2022-08-01T07:57:33;3.70;;;1.90;;
48552;SDS011;34335;51.566;6.994;2022-08-01T07:59:58;3.78;;;2.03;;
48552;SDS011;34335;51.566;6.994;2022-08-01T08:02:24;4.00;;;1.97;;
48552;SDS011;34335;51.566;6.994;2022-08-01T08:04:49;3.27;;;1.77;;
48552;SDS011;34335;51.566;6.994;2022-08-01T08:07:14;3.13;;;1.70;;
48552;SDS011;34335;51.566;6.994;2022-08-01T08:09:40;3.47;;;1.90;;
48552;SDS011;34335;51.566;6.994;2022-08-01T08:12:05;3.93;;;2.07;;
48552;SDS011;34335;51.566;6.994;2022-08-01T08:14:31;4.32;;;2.17;;
48552;SDS011;34335;51.566;6.994;2022-08-01T08:16:56;4.57;;;2.33;;
48552;SDS011;34335;51.566;6.994;2022-08-01T08:19:21;6.80;;;2.00;;
48552;SDS011;34335;51.566;6.994;2022-08-01T08:21:47;3.67;;;1.40;;
48552;SDS011;34335;51.566;6.994;2022-08-01T08:24:12;3.27;;;1.33;;
48552;SDS011;34335;51.566;6.994;2022-08-01T08:26:47;2.63;;;1.30;;
48552;SDS011;34335;51.566;6.994;2022-08-01T08:29:14;3.97;;;1.20;;
48552;SDS011;34335;51.566;6.994;2022-08-01T08:31:40;4.78;;;1.55;;
48552;SDS011;34335;51.566;6.994;2022-08-01T08:34:05;3.20;;;1.50;;
48552;SDS011;34335;51.566;6.994;2022-08-01T08:36:31;2.75;;;1.08;;
48552;SDS011;34335;51.566;6.994;2022-08-01T08:39:00;1.75;;;1.10;;
48552;SDS011;34335;51.566;6.994;2022-08-01T08:41:25;3.10;;;1.10;;
48552;SDS011;34335;51.566;6.994;2022-08-01T08:43:51;2.38;;;1.00;;
48552;SDS011;34335;51.566;6.994;2022-08-01T08:46:16;3.47;;;1.17;;
48552;SDS011;34335;51.566;6.994;2022-08-01T08:48:42;2.63;;;1.25;;
48552;SDS011;34335;51.566;6.994;2022-08-01T08:51:08;2.22;;;1.10;;
48552;SDS011;34335;51.566;6.994;2022-08-01T08:53:36;3.55;;;1.35;;
48552;SDS011;34335;51.566;6.994;2022-08-01T08:56:08;2.65;;;1.33;;
48552;SDS011;34335;51.566;6.994;2022-08-01T08:58:33;3.20;;;1.20;;
48552;SDS011;34335;51.566;6.994;2022-08-01T09:01:04;2.28;;;1.27;;
48552;SDS011;34335;51.566;6.994;2022-08-01T09:03:31;2.60;;;1.10;;
48552;SDS011;34335;51.566;6.994;2022-08-01T09:05:57;3.30;;;1.65;;
48552;SDS011;34335;51.566;6.994;2022-08-01T09:08:22;2.70;;;1.47;;
48552;SDS011;34335;51.566;6.994;2022-08-01T09:10:48;4.77;;;1.33;;
48552;SDS011;34335;51.566;6.994;2022-08-01T09:13:14;4.23;;;2.00;;
48552;SDS011;34335;51.566;6.994;2022-08-01T09:15:40;4.68;;;1.83;;
48552;SDS011;34335;51.566;6.994;2022-08-01T09:18:25;2.97;;;1.67;;
48552;SDS011;34335;51.566;6.994;2022-08-01T09:21:08;2.83;;;1.58;;
48552;SDS011;34335;51.566;6.994;2022-08-01T09:26:11;2.20;;;1.20;;
48552;SDS011;34335;51.566;6.994;2022-08-01T09:28:38;3.53;;;2.15;;
48552;SDS011;34335;51.566;6.994;2022-08-01T09:31:07;2.28;;;1.25;;
48552;SDS011;34335;51.566;6.994;2022-08-01T09:33:51;2.60;;;1.45;;
48552;SDS011;34335;51.566;6.994;2022-08-01T09:36:43;2.47;;;1.20;;
48552;SDS011;34335;51.566;6.994;2022-08-01T09:39:18;4.68;;;1.17;;
48552;SDS011;34335;51.566;6.994;2022-08-01T09:41:45;4.05;;;1.13;;
48552;SDS011;34335;51.566;6.994;2022-08-01T09:44:11;4.93;;;1.25;;
48552;SDS011;34335;51.566;6.994;2022-08-01T09:46:48;12.45;;;2.15;;
48552;SDS011;34335;51.566;6.994;2022-08-01T09:49:14;8.38;;;1.55;;
48552;SDS011;34335;51.566;6.994;2022-08-01T09:51:51;4.40;;;1.55;;
48552;SDS011;34335;51.566;6.994;2022-08-01T09:54:16;6.50;;;1.05;;
48552;SDS011;34335;51.566;6.994;2022-08-01T09:57:06;1.63;;;0.70;;
48552;SDS011;34335;51.566;6.994;2022-08-01T09:59:36;2.03;;;0.70;;
48552;SDS011;34335;51.566;6.994;2022-08-01T10:02:07;2.97;;;0.43;;
48552;SDS011;34335;51.566;6.994;2022-08-01T10:04:33;0.47;;;0.35;;
48552;SDS011;34335;51.566;6.994;2022-08-01T10:07:03;0.77;;;0.40;;
48552;SDS011;34335;51.566;6.994;2022-08-01T10:09:32;4.57;;;0.52;;
48552;SDS011;34335;51.566;6.994;2022-08-01T10:11:59;1.55;;;0.57;;
48552;SDS011;34335;51.566;6.994;2022-08-01T10:14:26;0.60;;;0.40;;
48552;SDS011;34335;51.566;6.994;2022-08-01T10:16:53;0.30;;;0.30;;
48552;SDS011;34335;51.566;6.994;2022-08-01T10:19:22;0.90;;;0.40;;
48552;SDS011;34335;51.566;6.994;2022-08-01T10:21:49;2.20;;;0.35;;
48552;SDS011;34335;51.566;6.994;2022-08-01T10:24:17;0.55;;;0.30;;
48552;SDS011;34335;51.566;6.994;2022-08-01T10:26:44;0.98;;;0.40;;
48552;SDS011;34335;51.566;6.994;2022-08-01T10:29:13;0.30;;;0.30;;
48552;SDS011;34335;51.566;6.994;2022-08-01T10:31:42;0.65;;;0.30;;
48552;SDS011;34335;51.566;6.994;2022-08-01T10:34:08;2.95;;;0.40;;
48552;SDS011;34335;51.566;6.994;2022-08-01T10:36:34;1.23;;;0.35;;
48552;SDS011;34335;51.566;6.994;2022-08-01T10:39:03;1.67;;;0.30;;
48552;SDS011;34335;51.566;6.994;2022-08-01T10:41:31;0.85;;;0.30;;
48552;SDS011;34335;51.566;6.994;2022-08-01T10:43:58;0.80;;;0.30;;
48552;SDS011;34335;51.566;6.994;2022-08-01T10:46:25;1.00;;;0.40;;
48552;SDS011;34335;51.566;6.994;2022-08-01T10:49:01;1.33;;;0.50;;
48552;SDS011;34335;51.566;6.994;2022-08-01T10:51:29;0.35;;;0.30;;
48552;SDS011;34335;51.566;6.994;2022-08-01T10:53:56;1.08;;;0.30;;
48552;SDS011;34335;51.566;6.994;2022-08-01T10:56:22;0.90;;;0.50;;
48552;SDS011;34335;51.566;6.994;2022-08-01T10:58:48;0.73;;;0.40;;
48552;SDS011;34335;51.566;6.994;2022-08-01T11:01:19;0.60;;;0.40;;
48552;SDS011;34335;51.566;6.994;2022-08-01T11:11:58;1.88;;;0.43;;
48552;SDS011;34335;51.566;6.994;2022-08-01T11:14:27;0.75;;;0.40;;
48552;SDS011;34335;51.566;6.994;2022-08-01T11:16:52;1.30;;;0.50;;
48552;SDS011;34335;51.566;6.994;2022-08-01T11:19:18;0.50;;;0.30;;
48552;SDS011;34335;51.566;6.994;2022-08-01T11:32:33;0.38;;;0.30;;
48552;SDS011;34335;51.566;6.994;2022-08-01T11:35:10;0.32;;;0.30;;
48552;SDS011;34335;51.566;6.994;2022-08-01T11:37:36;0.63;;;0.40;;
48552;SDS011;34335;51.566;6.994;2022-08-01T11:40:21;0.90;;;0.32;;
48552;SDS011;34335;51.566;6.994;2022-08-01T11:42:47;0.68;;;0.47;;
48552;SDS011;34335;51.566;6.994;2022-08-01T11:45:14;0.40;;;0.40;;
48552;SDS011;34335;51.566;6.994;2022-08-01T11:47:43;1.75;;;0.47;;
48552;SDS011;34335;51.566;6.994;2022-08-01T11:52:58;1.00;;;0.57;;
48552;SDS011;34335;51.566;6.994;2022-08-01T11:55:25;1.00;;;0.40;;
48552;SDS011;34335;51.566;6.994;2022-08-01T11:57:57;0.80;;;0.35;;
48552;SDS011;34335;51.566;6.994;2022-08-01T12:00:24;1.23;;;0.60;;
48552;SDS011;34335;51.566;6.994;2022-08-01T12:02:56;1.47;;;0.60;;
48552;SDS011;34335;51.566;6.994;2022-08-01T12:05:23;1.15;;;0.52;;
48552;SDS011;34335;51.566;6.994;2022-08-01T12:07:50;0.90;;;0.38;;
48552;SDS011;34335;51.566;6.994;2022-08-01T12:10:17;1.63;;;0.63;;
48552;SDS011;34335;51.566;6.994;2022-08-01T12:12:44;1.42;;;0.65;;
48552;SDS011;34335;51.566;6.994;2022-08-01T12:15:11;1.33;;;0.60;;
48552;SDS011;34335;51.566;6.994;2022-08-01T12:17:38;1.23;;;0.50;;
48552;SDS011;34335;51.566;6.994;2022-08-01T12:20:06;0.73;;;0.40;;
48552;SDS011;34335;51.566;6.994;2022-08-01T12:22:34;1.02;;;0.50;;
48552;SDS011;34335;51.566;6.994;2022-08-01T12:27:33;1.17;;;0.52;;
48552;SDS011;34335;51.566;6.994;2022-08-01T12:29:59;1.00;;;0.60;;
48552;SDS011;34335;51.566;6.994;2022-08-01T12:32:28;1.08;;;0.60;;
48552;SDS011;34335;51.566;6.994;2022-08-01T12:38:26;1.33;;;0.82;;
48552;SDS011;34335;51.566;6.994;2022-08-01T12:40:52;2.20;;;0.60;;
48552;SDS011;34335;51.566;6.994;2022-08-01T12:43:18;2.67;;;0.73;;
48552;SDS011;34335;51.566;6.994;2022-08-01T12:45:47;0.90;;;0.60;;
48552;SDS011;34335;51.566;6.994;2022-08-01T12:48:15;1.17;;;0.60;;
48552;SDS011;34335;51.566;6.994;2022-08-01T12:50:43;1.23;;;0.60;;
48552;SDS011;34335;51.566;6.994;2022-08-01T12:53:10;1.10;;;0.60;;
48552;SDS011;34335;51.566;6.994;2022-08-01T12:55:45;1.60;;;0.90;;
48552;SDS011;34335;51.566;6.994;2022-08-01T12:58:15;0.80;;;0.55;;
48552;SDS011;34335;51.566;6.994;2022-08-01T13:00:43;3.20;;;0.63;;
48552;SDS011;34335;51.566;6.994;2022-08-01T13:03:17;0.90;;;0.52;;
48552;SDS011;34335;51.566;6.994;2022-08-01T13:05:48;1.38;;;0.82;;
48552;SDS011;34335;51.566;6.994;2022-08-01T13:08:22;1.77;;;0.90;;
48552;SDS011;34335;51.566;6.994;2022-08-01T13:10:50;2.35;;;0.98;;
48552;SDS011;34335;51.566;6.994;2022-08-01T13:13:34;1.17;;;0.73;;
48552;SDS011;34335;51.566;6.994;2022-08-01T13:16:03;1.55;;;0.60;;
48552;SDS011;34335;51.566;6.994;2022-08-01T13:18:31;2.33;;;0.80;;
48552;SDS011;34335;51.566;6.994;2022-08-01T13:23:35;2.72;;;0.80;;
48552;SDS011;34335;51.566;6.994;2022-08-01T13:26:01;1.52;;;0.60;;
48552;SDS011;34335;51.566;6.994;2022-08-01T13:28:27;1.42;;;0.80;;
48552;SDS011;34335;51.566;6.994;2022-08-01T13:30:53;1.13;;;0.63;;
48552;SDS011;34335;51.566;6.994;2022-08-01T13:33:24;0.93;;;0.57;;
48552;SDS011;34335;51.566;6.994;2022-08-01T13:35:51;1.42;;;0.70;;
48552;SDS011;34335;51.566;6.994;2022-08-01T13:38:18;1.80;;;0.70;;
48552;SDS011;34335;51.566;6.994;2022-08-01T13:40:44;1.95;;;0.90;;
48552;SDS011;34335;51.566;6.994;2022-08-01T13:43:09;2.57;;;0.80;;
48552;SDS011;34335;51.566;6.994;2022-08-01T13:45:34;3.73;;;0.93;;
48552;SDS011;34335;51.566;6.994;2022-08-01T13:48:00;2.53;;;1.00;;
48552;SDS011;34335;51.566;6.994;2022-08-01T13:50:26;1.90;;;0.93;;
48552;SDS011;34335;51.566;6.994;2022-08-01T13:52:51;1.30;;;0.90;;
48552;SDS011;34335;51.566;6.994;2022-08-01T13:55:16;1.83;;;0.97;;
48552;SDS011;34335;51.566;6.994;2022-08-01T13:57:42;1.92;;;1.02;;
48552;SDS011;34335;51.566;6.994;2022-08-01T14:00:08;2.20;;;1.13;;
48552;SDS011;34335;51.566;6.994;2022-08-01T14:02:34;5.88;;;1.20;;
48552;SDS011;34335;51.566;6.994;2022-08-01T14:08:21;2.67;;;1.40;;
48552;SDS011;34335;51.566;6.994;2022-08-01T14:10:47;2.70;;;1.00;;
48552;SDS011;34335;51.566;6.994;2022-08-01T14:13:12;4.60;;;0.93;;
48552;SDS011;34335;51.566;6.994;2022-08-01T14:15:38;2.75;;;1.13;;
48552;SDS011;34335;51.566;6.994;2022-08-01T14:18:04;1.90;;;1.00;;
48552;SDS011;34335;51.566;6.994;2022-08-01T14:20:30;4.40;;;1.40;;
48552;SDS011;34335;51.566;6.994;2022-08-01T14:22:55;2.10;;;1.20;;
48552;SDS011;34335;51.566;6.994;2022-08-01T14:25:21;2.72;;;1.20;;
48552;SDS011;34335;51.566;6.994;2022-08-01T14:27:47;4.37;;;1.30;;
48552;SDS011;34335;51.566;6.994;2022-08-01T14:30:13;1.85;;;1.02;;
48552;SDS011;34335;51.566;6.994;2022-08-01T14:32:38;2.08;;;0.85;;
48552;SDS011;34335;51.566;6.994;2022-08-01T14:35:04;8.60;;;1.60;;
48552;SDS011;34335;51.566;6.994;2022-08-01T14:37:31;4.75;;;1.50;;
48552;SDS011;34335;51.566;6.994;2022-08-01T14:39:57;3.72;;;1.27;;
48552;SDS011;34335;51.566;6.994;2022-08-01T14:42:23;5.03;;;1.30;;
48552;SDS011;34335;51.566;6.994;2022-08-01T14:44:48;2.50;;;1.40;;
48552;SDS011;34335;51.566;6.994;2022-08-01T14:47:14;3.27;;;1.07;;
48552;SDS011;34335;51.566;6.994;2022-08-01T14:49:39;2.30;;;1.23;;
48552;SDS011;34335;51.566;6.994;2022-08-01T14:52:05;3.10;;;1.30;;
48552;SDS011;34335;51.566;6.994;2022-08-01T14:54:30;3.75;;;1.90;;
48552;SDS011;34335;51.566;6.994;2022-08-01T14:56:55;2.83;;;0.90;;
48552;SDS011;34335;51.566;6.994;2022-08-01T14:59:21;1.60;;;0.90;;
48552;SDS011;34335;51.566;6.994;2022-08-01T15:01:46;2.10;;;1.55;;
48552;SDS011;34335;51.566;6.994;2022-08-01T15:04:11;2.33;;;1.10;;
48552;SDS011;34335;51.566;6.994;2022-08-01T15:06:37;3.33;;;1.00;;
48552;SDS011;34335;51.566;6.994;2022-08-01T15:09:03;3.80;;;1.27;;
48552;SDS011;34335;51.566;6.994;2022-08-01T15:11:28;3.40;;;1.30;;
48552;SDS011;34335;51.566;6.994;2022-08-01T15:13:53;2.40;;;1.17;;
48552;SDS011;34335;51.566;6.994;2022-08-01T15:16:38;4.35;;;1.42;;
48552;SDS011;34335;51.566;6.994;2022-08-01T15:19:03;3.38;;;1.27;;
48552;SDS011;34335;51.566;6.994;2022-08-01T15:21:29;2.15;;;1.08;;
48552;SDS011;34335;51.566;6.994;2022-08-01T15:23:54;2.72;;;1.10;;
48552;SDS011;34335;51.566;6.994;2022-08-01T15:26:20;2.40;;;0.90;;
48552;SDS011;34335;51.566;6.994;2022-08-01T15:28:45;2.78;;;1.27;;